Hartford, Connecticut
Traffic Map
Current Weather Conditions
Hartford, Connecticut
Overcast
Overcast
28°
Feels Like: 21°
Wind Chill: 21° Ceiling: 5500
Heat Index: 28° Visibility: 10mi
Dew Point: 16° Wind: 7mph
Humidity: 61% Direction: 280° (W)
Pressure: 29.72in Gusts: 0mph
Raw Report DataKHFD 110953Z AUTO 28006KT 10SM OVC055 M02/M09 A2972 RMK AO2 SLP063 T10221089
Traffic Incident Summary
Active as of:
Severity:
Category:
InformationThere was an issue retrieving the traffic information for this location. Please try a different location or try again shortly.
Advertisements
Track Severe Weather on mobile